Time,TemperatureF,DewpointF,PressureIn,WindDirection,WindDirectionDegrees,WindSpeedMPH,WindSpeedGustMPH,Humidity,HourlyPrecipIn,Conditions,Clouds,dailyrainin,SoftwareType,DateUTC
2013-03-31 00:02:00,40.8,40.0,29.56,NNW,338,3.1,4.5,97,0.00,,---,0.00,VWS V14.01,2013-03-30 23:02:00,
2013-03-31 00:07:00,40.8,40.0,29.56,NNW,339,4.5,5.4,97,0.00,,---,0.00,VWS V14.01,2013-03-30 23:07:00,
2013-03-31 00:12:00,40.6,39.9,29.56,NNW,335,5.4,5.4,97,0.00,,---,0.00,VWS V14.01,2013-03-30 23:12:00,
2013-03-31 00:17:00,40.5,39.7,29.56,North,356,3.1,4.9,97,0.00,,---,0.00,VWS V14.01,2013-03-30 23:17:00,
2013-03-31 00:22:00,40.5,39.7,29.56,North,10,3.6,7.8,97,0.00,,---,0.00,VWS V14.01,2013-03-30 23:22:00,
2013-03-31 00:27:00,40.3,39.5,29.56,SE,124,4.0,5.4,97,0.00,,---,0.00,VWS V14.01,2013-03-30 23:27:00,
2013-03-31 00:32:00,40.3,39.5,29.56,NW,322,3.6,8.3,97,0.00,,---,0.00,VWS V14.01,2013-03-30 23:32:00,
2013-03-31 00:37:00,40.3,39.5,29.56,North,351,3.6,5.4,97,0.00,,---,0.00,VWS V14.01,2013-03-30 23:37:00,
2013-03-31 00:42:00,40.3,39.5,29.56,WNW,292,0.0,4.0,97,0.00,,---,0.00,VWS V14.01,2013-03-30 23:42:00,
2013-03-31 00:47:00,40.3,39.5,29.56,NNW,333,3.1,6.3,97,0.00,,---,0.00,VWS V14.01,2013-03-30 23:47:00,
2013-03-31 00:52:00,40.3,39.5,29.56,NNW,331,4.0,4.9,97,0.00,,---,0.00,VWS V14.01,2013-03-30 23:52:00,
2013-03-31 00:57:00,40.3,39.5,29.56,NNW,339,5.4,6.3,97,0.00,,---,0.00,VWS V14.01,2013-03-30 23:57:00,
2013-03-31 00:59:00,39.9,39.1,29.53,North,351,3.6,6.3,97,0.00,,---,0.00,VWS V14.01,2013-03-30 23:59:00,
2013-03-31 01:02:00,40.3,39.5,29.56,NNW,333,5.4,5.8,97,0.00,,---,0.00,VWS V14.01,2013-03-31 00:02:00,
2013-03-31 01:07:00,40.1,39.3,29.53,NNW,338,8.7,8.7,97,0.00,,---,0.00,VWS V14.01,2013-03-31 00:07:00,
2013-03-31 01:12:00,40.1,39.3,29.53,North,351,8.3,8.7,97,0.00,,---,0.00,VWS V14.01,2013-03-31 00:12:00,
2013-03-31 01:17:00,39.9,39.1,29.53,NNW,339,0.0,6.3,97,0.00,,---,0.00,VWS V14.01,2013-03-31 00:17:00,
2013-03-31 01:22:00,39.9,39.1,29.53,NNW,341,3.1,5.8,97,0.00,,---,0.00,VWS V14.01,2013-03-31 00:22:00,
2013-03-31 01:27:00,40.1,39.3,29.53,North,351,5.8,5.8,97,0.00,,---,0.00,VWS V14.01,2013-03-31 00:27:00,
2013-03-31 01:32:00,40.1,39.3,29.53,NNW,345,2.7,5.4,97,0.00,,---,0.00,VWS V14.01,2013-03-31 00:32:00,
2013-03-31 01:37:00,39.9,39.1,29.53,North,0,0.0,3.6,97,0.00,,---,0.00,VWS V14.01,2013-03-31 00:37:00,
2013-03-31 01:42:00,39.9,39.1,29.53,NNW,347,5.8,6.3,97,0.00,,---,0.00,VWS V14.01,2013-03-31 00:42:00,
2013-03-31 01:47:00,39.9,39.1,29.53,NNW,343,4.9,6.3,97,0.00,,---,0.00,VWS V14.01,2013-03-31 00:47:00,
2013-03-31 01:52:00,39.9,39.1,29.53,NNW,336,0.0,4.0,97,0.00,,---,0.00,VWS V14.01,2013-03-31 00:52:00,
2013-03-31 01:57:00,39.9,39.1,29.53,NNW,330,5.4,6.7,97,0.00,,---,0.00,VWS V14.01,2013-03-31 00:57:00,
2013-03-31 03:02:00,39.9,39.1,29.53,NNW,340,4.5,4.5,97,0.00,,---,0.00,VWS V14.01,2013-03-31 01:02:00,
2013-03-31 03:08:00,39.9,39.1,29.50,NNW,345,0.0,4.9,97,0.00,,---,0.00,VWS V14.01,2013-03-31 01:08:00,
2013-03-31 03:13:00,40.1,39.3,29.50,NNW,331,0.0,6.9,97,0.00,,---,0.00,VWS V14.01,2013-03-31 01:13:00,
2013-03-31 03:18:00,40.1,39.3,29.50,North,351,4.5,7.8,97,0.00,,---,0.00,VWS V14.01,2013-03-31 01:18:00,
2013-03-31 03:23:00,40.1,39.3,29.50,NNW,344,0.0,6.3,97,0.00,,---,0.00,VWS V14.01,2013-03-31 01:23:00,
2013-03-31 03:28:00,40.1,39.3,29.50,North,356,3.1,6.3,97,0.00,,---,0.00,VWS V14.01,2013-03-31 01:28:00,
2013-03-31 03:33:00,40.1,39.3,29.50,NW,313,3.1,4.9,97,0.00,,---,0.00,VWS V14.01,2013-03-31 01:33:00,
2013-03-31 03:38:00,40.3,39.5,29.50,NW,325,3.6,3.6,97,0.00,,---,0.00,VWS V14.01,2013-03-31 01:38:00,
2013-03-31 03:43:00,40.3,39.5,29.50,NW,315,5.4,6.7,97,0.00,,---,0.00,VWS V14.01,2013-03-31 01:43:00,
2013-03-31 03:48:00,40.3,39.5,29.50,NNW,332,4.5,6.3,97,0.00,,---,0.00,VWS V14.01,2013-03-31 01:48:00,
2013-03-31 03:53:00,40.3,39.5,29.50,NNW,340,5.8,8.3,97,0.00,,---,0.00,VWS V14.01,2013-03-31 01:53:00,
2013-03-31 03:58:00,40.5,39.7,29.50,North,351,4.9,5.8,97,0.00,,---,0.00,VWS V14.01,2013-03-31 01:58:00,
2013-03-31 04:03:00,40.5,39.7,29.50,NNW,337,3.6,5.4,97,0.00,,---,0.00,VWS V14.01,2013-03-31 02:03:00,
2013-03-31 04:08:00,40.5,39.7,29.47,North,351,6.7,6.9,97,0.00,,---,0.00,VWS V14.01,2013-03-31 02:08:00,
2013-03-31 04:13:00,40.5,39.7,29.47,North,351,6.3,7.4,97,0.00,,---,0.00,VWS V14.01,2013-03-31 02:13:00,
2013-03-31 04:18:00,40.5,39.7,29.47,North,351,6.7,8.3,97,0.00,,---,0.00,VWS V14.01,2013-03-31 02:18:00,
2013-03-31 04:23:00,40.6,39.9,29.47,North,351,5.8,5.8,97,0.00,,---,0.00,VWS V14.01,2013-03-31 02:23:00,
2013-03-31 04:28:00,40.6,39.9,29.47,North,351,4.5,4.9,97,0.00,,---,0.00,VWS V14.01,2013-03-31 02:28:00,
2013-03-31 04:33:00,40.6,39.9,29.47,North,351,0.0,5.4,97,0.00,,---,0.00,VWS V14.01,2013-03-31 02:33:00,
2013-03-31 04:38:00,40.6,39.9,29.47,NNW,339,5.8,6.3,97,0.00,,---,0.00,VWS V14.01,2013-03-31 02:38:00,
2013-03-31 04:43:00,40.6,39.9,29.47,NNW,333,2.7,3.6,97,0.00,,---,0.00,VWS V14.01,2013-03-31 02:43:00,
2013-03-31 04:48:00,40.8,40.0,29.47,NNW,343,5.4,6.7,97,0.00,,---,0.00,VWS V14.01,2013-03-31 02:48:00,
2013-03-31 04:53:00,40.8,40.0,29.47,SE,125,6.3,6.3,97,0.00,,---,0.00,VWS V14.01,2013-03-31 02:53:00,
2013-03-31 04:58:00,41.0,40.2,29.47,NNW,340,5.4,6.3,97,0.00,,---,0.00,VWS V14.01,2013-03-31 02:58:00,
2013-03-31 05:03:00,41.0,40.2,29.47,NNW,347,2.7,6.7,97,0.00,,---,0.00,VWS V14.01,2013-03-31 03:03:00,
2013-03-31 05:08:00,41.0,40.2,29.47,NNW,343,3.1,3.6,97,0.00,,---,0.00,VWS V14.01,2013-03-31 03:08:00,
2013-03-31 05:13:00,41.0,40.2,29.47,North,351,7.4,8.3,97,0.00,,---,0.00,VWS V14.01,2013-03-31 03:13:00,
2013-03-31 05:18:00,41.0,40.2,29.47,ESE,120,3.6,4.9,97,0.00,,---,0.00,VWS V14.01,2013-03-31 03:18:00,
2013-03-31 05:23:00,41.0,40.2,29.44,NW,307,0.0,2.7,97,0.00,,---,0.00,VWS V14.01,2013-03-31 03:23:00,
2013-03-31 05:28:00,41.0,40.2,29.44,ESE,119,2.7,4.9,97,0.00,,---,0.00,VWS V14.01,2013-03-31 03:28:00,
2013-03-31 05:33:00,41.2,40.4,29.44,North,356,3.1,6.9,97,0.00,,---,0.00,VWS V14.01,2013-03-31 03:33:00,
2013-03-31 05:38:00,41.2,40.4,29.44,ESE,116,4.5,5.8,97,0.00,,---,0.00,VWS V14.01,2013-03-31 03:38:00,
2013-03-31 05:43:00,41.0,40.2,29.44,NNW,331,5.4,6.9,97,0.00,,---,0.00,VWS V14.01,2013-03-31 03:43:00,
2013-03-31 05:48:00,41.0,40.2,29.44,NNW,334,5.4,5.4,97,0.00,,---,0.00,VWS V14.01,2013-03-31 03:48:00,
2013-03-31 05:53:00,40.8,40.0,29.44,North,351,2.7,6.9,97,0.00,,---,0.00,VWS V14.01,2013-03-31 03:53:00,
2013-03-31 05:58:00,40.8,40.0,29.44,NNW,337,6.3,6.3,97,0.00,,---,0.00,VWS V14.01,2013-03-31 03:58:00,
2013-03-31 06:00:00,40.8,40.0,29.44,NNW,340,4.9,4.9,97,0.00,,---,0.00,VWS V14.01,2013-03-31 04:00:00,
2013-03-31 06:01:00,40.8,40.0,29.44,NW,312,3.6,5.4,97,0.00,,---,0.00,VWS V14.01,2013-03-31 04:01:00,
2013-03-31 06:06:00,40.8,40.0,29.44,NW,323,3.1,4.5,97,0.00,,---,0.00,VWS V14.01,2013-03-31 04:06:00,
2013-03-31 06:11:00,41.0,40.2,29.44,NNW,339,0.0,4.0,97,0.00,,---,0.00,VWS V14.01,2013-03-31 04:11:00,
2013-03-31 06:16:00,41.2,40.4,29.44,WNW,303,4.0,4.9,97,0.00,,---,0.00,VWS V14.01,2013-03-31 04:16:00,
2013-03-31 06:22:00,41.4,40.6,29.44,NW,318,4.0,4.5,97,0.00,,---,0.00,VWS V14.01,2013-03-31 04:22:00,
2013-03-31 06:27:00,41.4,40.6,29.44,NNW,329,0.0,5.4,97,0.00,,---,0.00,VWS V14.01,2013-03-31 04:27:00,
2013-03-31 06:32:00,41.5,40.8,29.44,NW,320,4.9,6.7,97,0.00,,---,0.00,VWS V14.01,2013-03-31 04:32:00,
2013-03-31 06:37:00,41.5,40.8,29.44,NNW,333,2.7,6.7,97,0.00,,---,0.00,VWS V14.01,2013-03-31 04:37:00,
2013-03-31 06:42:00,41.7,40.9,29.44,NNW,335,3.6,4.9,97,0.00,,---,0.00,VWS V14.01,2013-03-31 04:42:00,
2013-03-31 06:47:00,41.7,40.9,29.44,NNW,335,6.7,7.4,97,0.00,,---,0.00,VWS V14.01,2013-03-31 04:47:00,
2013-03-31 06:52:00,41.9,41.1,29.41,NW,304,3.6,4.5,97,0.00,,---,0.00,VWS V14.01,2013-03-31 04:52:00,
2013-03-31 06:57:00,42.1,41.3,29.41,West,281,7.4,7.4,97,0.00,,---,0.00,VWS V14.01,2013-03-31 04:57:00,
2013-03-31 07:02:00,42.3,41.5,29.41,WNW,282,6.3,8.3,97,0.00,,---,0.00,VWS V14.01,2013-03-31 05:02:00,
2013-03-31 07:07:00,42.3,41.5,29.41,West,281,7.4,7.8,97,0.00,,---,0.00,VWS V14.01,2013-03-31 05:07:00,
2013-03-31 07:12:00,42.3,41.5,29.41,WNW,290,3.1,5.8,97,0.00,,---,0.00,VWS V14.01,2013-03-31 05:12:00,
2013-03-31 07:17:00,42.1,41.3,29.41,NW,306,0.0,0.0,97,0.00,,---,0.00,VWS V14.01,2013-03-31 05:17:00,
2013-03-31 07:22:00,42.3,41.5,29.41,NW,306,0.0,0.0,97,0.00,,---,0.00,VWS V14.01,2013-03-31 05:22:00,
2013-03-31 07:27:00,43.0,42.2,29.41,SSE,148,5.4,6.9,97,0.00,,---,0.00,VWS V14.01,2013-03-31 05:27:00,
2013-03-31 07:32:00,44.1,43.3,29.41,SSE,153,10.1,10.1,97,0.00,,---,0.00,VWS V14.01,2013-03-31 05:32:00,
2013-03-31 07:37:00,44.8,44.0,29.41,SSE,147,6.3,6.9,97,0.00,,---,0.00,VWS V14.01,2013-03-31 05:37:00,
2013-03-31 07:42:00,45.1,44.3,29.41,SSE,155,6.9,7.4,97,0.00,,---,0.00,VWS V14.01,2013-03-31 05:42:00,
2013-03-31 07:47:00,45.1,44.3,29.41,SSE,159,6.9,8.7,97,0.00,,---,0.00,VWS V14.01,2013-03-31 05:47:00,
2013-03-31 07:52:00,45.3,44.5,29.41,SSE,166,4.9,4.9,97,0.00,,---,0.00,VWS V14.01,2013-03-31 05:52:00,
2013-03-31 07:57:00,45.3,44.5,29.41,SSE,162,0.0,0.0,97,0.00,,---,0.00,VWS V14.01,2013-03-31 05:57:00,
2013-03-31 08:02:00,45.5,44.7,29.41,SSE,162,3.6,3.6,97,0.00,,---,0.00,VWS V14.01,2013-03-31 06:02:00,
2013-03-31 08:07:00,45.5,44.7,29.44,South,171,3.6,4.0,97,0.00,,---,0.00,VWS V14.01,2013-03-31 06:07:00,
2013-03-31 08:12:00,45.5,44.7,29.44,South,170,6.7,7.8,97,0.00,,---,0.00,VWS V14.01,2013-03-31 06:12:00,
2013-03-31 08:17:00,45.5,44.7,29.44,SSE,166,4.5,4.9,97,0.00,,---,0.00,VWS V14.01,2013-03-31 06:17:00,
2013-03-31 08:22:00,45.5,44.7,29.44,SSE,147,3.6,4.0,97,0.00,,---,0.00,VWS V14.01,2013-03-31 06:22:00,
2013-03-31 08:27:00,45.5,44.7,29.44,SSE,155,6.7,7.4,97,0.00,,---,0.00,VWS V14.01,2013-03-31 06:27:00,
2013-03-31 08:32:00,45.5,44.7,29.44,ESE,113,7.8,7.8,97,0.00,,---,0.00,VWS V14.01,2013-03-31 06:32:00,
2013-03-31 08:37:00,45.5,44.7,29.41,SSE,156,4.5,4.5,97,0.00,,---,0.00,VWS V14.01,2013-03-31 06:37:00,
2013-03-31 08:42:00,45.5,44.7,29.41,NNE,33,2.7,2.7,97,0.00,,---,0.00,VWS V14.01,2013-03-31 06:42:00,
2013-03-31 08:47:00,45.5,44.7,29.41,NW,322,3.1,3.1,97,0.00,,---,0.00,VWS V14.01,2013-03-31 06:47:00,
2013-03-31 08:52:00,45.7,44.9,29.41,North,351,0.0,0.0,97,0.00,,---,0.00,VWS V14.01,2013-03-31 06:52:00,
2013-03-31 08:57:00,45.7,44.9,29.41,NW,324,0.0,3.6,97,0.00,,---,0.00,VWS V14.01,2013-03-31 06:57:00,
2013-03-31 09:02:00,45.9,45.1,29.41,NE,47,0.0,3.1,97,0.00,,---,0.00,VWS V14.01,2013-03-31 07:02:00,
2013-03-31 09:07:00,45.9,45.1,29.41,NE,47,0.0,3.1,97,0.00,,---,0.00,VWS V14.01,2013-03-31 07:07:00,
2013-03-31 09:12:00,45.9,45.1,29.41,SE,135,2.7,4.0,97,0.00,,---,0.00,VWS V14.01,2013-03-31 07:12:00,
2013-03-31 09:17:00,45.9,45.1,29.41,North,356,2.7,3.1,97,0.00,,---,0.00,VWS V14.01,2013-03-31 07:17:00,
2013-03-31 09:22:00,46.0,45.2,29.41,South,172,0.0,0.0,97,0.00,,---,0.00,VWS V14.01,2013-03-31 07:22:00,
2013-03-31 09:27:00,46.0,45.2,29.41,South,172,0.0,2.7,97,0.00,,---,0.00,VWS V14.01,2013-03-31 07:27:00,
2013-03-31 09:32:00,46.2,45.4,29.41,South,172,2.7,2.7,97,0.00,,---,0.00,VWS V14.01,2013-03-31 07:32:00,
2013-03-31 09:37:00,46.2,45.4,29.41,South,172,0.0,0.0,97,0.00,,---,0.00,VWS V14.01,2013-03-31 07:37:00,
2013-03-31 09:42:00,46.4,45.6,29.41,South,172,0.0,0.0,97,0.00,,---,0.00,VWS V14.01,2013-03-31 07:42:00,
2013-03-31 09:47:00,46.4,45.6,29.41,South,172,0.0,0.0,97,0.00,,---,0.00,VWS V14.01,2013-03-31 07:47:00,
2013-03-31 09:52:00,46.4,45.6,29.38,SE,135,6.3,9.6,97,0.00,,---,0.00,VWS V14.01,2013-03-31 07:52:00,
2013-03-31 09:57:00,46.4,45.6,29.38,SE,141,3.1,3.1,97,0.00,,---,0.00,VWS V14.01,2013-03-31 07:57:00,
2013-03-31 10:02:00,46.4,45.6,29.38,South,173,3.6,4.0,97,0.00,,---,0.00,VWS V14.01,2013-03-31 08:02:00,
2013-03-31 10:07:00,46.6,45.8,29.41,South,173,3.6,4.0,97,0.00,,---,0.00,VWS V14.01,2013-03-31 08:07:00,
2013-03-31 10:12:00,46.8,46.0,29.41,South,173,0.0,2.7,97,0.00,,---,0.00,VWS V14.01,2013-03-31 08:12:00,
2013-03-31 10:18:00,46.8,46.0,29.41,South,173,0.0,3.1,97,0.00,,---,0.00,VWS V14.01,2013-03-31 08:18:00,
2013-03-31 10:23:00,46.8,46.0,29.41,South,173,4.0,4.9,97,0.00,,---,0.00,VWS V14.01,2013-03-31 08:23:00,
2013-03-31 10:27:00,46.8,46.0,29.41,SSE,157,6.9,8.7,97,0.00,,---,0.00,VWS V14.01,2013-03-31 08:27:00,
2013-03-31 10:33:00,46.9,46.1,29.41,SE,124,3.1,5.8,97,0.00,,---,0.00,VWS V14.01,2013-03-31 08:33:00,
2013-03-31 10:38:00,46.9,46.1,29.41,SSE,167,3.6,4.0,97,0.00,,---,0.00,VWS V14.01,2013-03-31 08:38:00,
2013-03-31 10:43:00,47.1,46.3,29.41,SSE,163,4.0,6.9,97,0.00,,---,0.00,VWS V14.01,2013-03-31 08:43:00,
2013-03-31 10:48:00,47.1,46.3,29.41,SSE,163,4.5,4.9,97,0.00,,---,0.00,VWS V14.01,2013-03-31 08:48:00,
2013-03-31 10:53:00,47.1,46.3,29.41,SSE,163,5.4,5.4,97,0.00,,---,0.00,VWS V14.01,2013-03-31 08:53:00,
2013-03-31 10:58:00,47.3,46.5,29.41,SSE,163,3.1,4.0,97,0.00,,---,0.00,VWS V14.01,2013-03-31 08:58:00,
2013-03-31 11:03:00,47.3,46.5,29.41,SSE,163,0.0,3.1,97,0.00,,---,0.00,VWS V14.01,2013-03-31 09:03:00,
2013-03-31 11:08:00,47.3,46.5,29.38,SSE,163,0.0,0.0,97,0.00,,---,0.00,VWS V14.01,2013-03-31 09:08:00,
2013-03-31 11:13:00,47.3,46.5,29.38,SSE,163,0.0,0.0,97,0.00,,---,0.00,VWS V14.01,2013-03-31 09:13:00,
2013-03-31 11:18:00,47.5,46.7,29.38,SSE,163,0.0,0.0,97,0.00,,---,0.00,VWS V14.01,2013-03-31 09:18:00,
2013-03-31 11:23:00,47.7,46.8,29.38,SSE,163,0.0,0.0,97,0.00,,---,0.00,VWS V14.01,2013-03-31 09:23:00,
2013-03-31 11:28:00,47.7,46.8,29.38,SSE,163,0.0,0.0,97,0.00,,---,0.00,VWS V14.01,2013-03-31 09:28:00,
2013-03-31 11:33:00,47.7,46.8,29.38,SSE,163,3.1,3.1,97,0.00,,---,0.00,VWS V14.01,2013-03-31 09:33:00,
2013-03-31 11:38:00,47.8,47.0,29.38,West,280,3.6,4.9,97,0.00,,---,0.00,VWS V14.01,2013-03-31 09:38:00,
2013-03-31 11:43:00,47.7,46.8,29.38,WNW,291,6.3,6.9,97,0.00,,---,0.00,VWS V14.01,2013-03-31 09:43:00,
2013-03-31 11:48:00,47.3,46.5,29.38,WNW,294,5.8,6.3,97,0.00,,---,0.00,VWS V14.01,2013-03-31 09:48:00,
2013-03-31 11:53:00,47.3,46.5,29.38,WNW,292,4.0,5.8,97,0.00,,---,0.00,VWS V14.01,2013-03-31 09:53:00,
2013-03-31 11:58:00,47.3,46.5,29.38,West,278,2.7,4.9,97,0.00,,---,0.00,VWS V14.01,2013-03-31 09:58:00,
2013-03-31 12:03:00,46.8,46.0,29.38,North,351,3.1,4.9,97,0.00,,---,0.00,VWS V14.01,2013-03-31 10:03:00,
2013-03-31 12:08:00,46.4,45.6,29.38,NW,305,3.6,4.5,97,0.00,,---,0.00,VWS V14.01,2013-03-31 10:08:00,
2013-03-31 12:13:00,45.9,45.1,29.38,NNW,334,0.0,4.0,97,0.00,,---,0.00,VWS V14.01,2013-03-31 10:13:00,
2013-03-31 12:18:00,45.7,44.9,29.38,WNW,290,0.0,4.5,97,0.00,,---,0.00,VWS V14.01,2013-03-31 10:18:00,
2013-03-31 12:23:00,45.7,44.9,29.38,WNW,284,5.8,5.8,97,0.00,,---,0.00,VWS V14.01,2013-03-31 10:23:00,
2013-03-31 12:28:00,45.9,45.1,29.38,WNW,284,3.1,3.1,97,0.00,,---,0.00,VWS V14.01,2013-03-31 10:28:00,
2013-03-31 12:33:00,45.9,45.1,29.38,West,278,3.6,4.5,97,0.00,,---,0.00,VWS V14.01,2013-03-31 10:33:00,
2013-03-31 12:38:00,46.0,45.2,29.38,WNW,287,4.5,4.5,97,0.00,,---,0.00,VWS V14.01,2013-03-31 10:38:00,
2013-03-31 12:43:00,46.0,45.2,29.38,WNW,286,5.4,5.4,97,0.00,,---,0.00,VWS V14.01,2013-03-31 10:43:00,
2013-03-31 12:48:00,46.2,45.4,29.38,WNW,285,4.0,4.5,97,0.00,,---,0.00,VWS V14.01,2013-03-31 10:48:00,
2013-03-31 12:53:00,46.0,45.2,29.41,WNW,284,4.0,4.0,97,0.00,,---,0.00,VWS V14.01,2013-03-31 10:53:00,
2013-03-31 12:58:00,46.0,45.2,29.41,WNW,284,4.5,4.5,97,0.00,,---,0.00,VWS V14.01,2013-03-31 10:58:00,
2013-03-31 13:03:00,45.9,45.1,29.41,WNW,284,3.1,3.1,97,0.00,,---,0.00,VWS V14.01,2013-03-31 11:03:00,
2013-03-31 13:08:00,45.9,45.1,29.41,WNW,284,0.0,0.0,97,0.00,,---,0.00,VWS V14.01,2013-03-31 11:08:00,
2013-03-31 13:13:00,45.7,44.9,29.41,WNW,284,0.0,2.7,97,0.00,,---,0.00,VWS V14.01,2013-03-31 11:13:00,
2013-03-31 13:18:00,45.5,44.7,29.41,SSW,194,0.0,0.0,97,0.00,,---,0.00,VWS V14.01,2013-03-31 11:18:00,
2013-03-31 13:23:00,45.5,44.7,29.41,South,171,0.0,3.1,97,0.00,,---,0.00,VWS V14.01,2013-03-31 11:23:00,
2013-03-31 13:28:00,45.7,44.9,29.41,WNW,290,3.6,3.6,97,0.00,,---,0.00,VWS V14.01,2013-03-31 11:28:00,
2013-03-31 13:33:00,45.5,44.7,29.41,WNW,285,0.0,2.7,97,0.00,,---,0.00,VWS V14.01,2013-03-31 11:33:00,
2013-03-31 13:38:00,45.5,44.7,29.41,SSE,147,3.6,3.6,97,0.00,,---,0.00,VWS V14.01,2013-03-31 11:38:00,
2013-03-31 13:43:00,45.3,44.5,29.41,SSE,147,0.0,0.0,97,0.00,,---,0.00,VWS V14.01,2013-03-31 11:43:00,
2013-03-31 13:48:00,45.1,44.3,29.41,SSE,147,0.0,2.7,97,0.00,,---,0.00,VWS V14.01,2013-03-31 11:48:00,
2013-03-31 13:53:00,45.0,44.2,29.38,SSE,147,4.0,4.0,97,0.00,,---,0.00,VWS V14.01,2013-03-31 11:53:00,
2013-03-31 13:58:00,45.1,44.3,29.38,West,280,0.0,0.0,97,0.00,,---,0.00,VWS V14.01,2013-03-31 11:58:00,
2013-03-31 14:03:00,45.1,44.3,29.38,West,280,0.0,0.0,97,0.00,,---,0.00,VWS V14.01,2013-03-31 12:03:00,
2013-03-31 14:08:00,45.1,44.3,29.41,West,280,0.0,0.0,97,0.00,,---,0.00,VWS V14.01,2013-03-31 12:08:00,
2013-03-31 14:13:00,45.1,44.3,29.41,West,276,6.3,6.3,97,0.00,,---,0.00,VWS V14.01,2013-03-31 12:13:00,
2013-03-31 14:18:00,44.8,44.0,29.41,SSE,156,6.3,6.3,97,0.00,,---,0.00,VWS V14.01,2013-03-31 12:18:00,
2013-03-31 14:23:00,43.5,42.7,29.41,South,185,6.3,6.7,97,0.00,,---,0.00,VWS V14.01,2013-03-31 12:23:00,
2013-03-31 14:28:00,42.6,41.8,29.41,West,275,4.0,5.8,97,0.00,,---,0.00,VWS V14.01,2013-03-31 12:28:00,
2013-03-31 14:33:00,42.3,41.5,29.41,SE,138,7.8,7.8,97,0.00,,---,0.00,VWS V14.01,2013-03-31 12:33:00,
2013-03-31 14:38:00,42.4,41.7,29.41,WNW,282,4.9,5.8,97,0.00,,---,0.00,VWS V14.01,2013-03-31 12:38:00,
2013-03-31 14:43:00,42.4,41.7,29.41,West,275,3.1,4.5,97,0.00,,---,0.00,VWS V14.01,2013-03-31 12:43:00,
2013-03-31 14:48:00,42.6,41.8,29.41,SSE,164,3.6,4.0,97,0.00,,---,0.00,VWS V14.01,2013-03-31 12:48:00,
2013-03-31 14:53:00,42.4,41.7,29.41,SSE,149,2.7,5.8,97,0.00,,---,0.00,VWS V14.01,2013-03-31 12:53:00,
2013-03-31 14:58:00,42.3,41.5,29.41,SSE,159,4.5,4.5,97,0.00,,---,0.00,VWS V14.01,2013-03-31 12:58:00,
2013-03-31 15:03:00,42.4,41.7,29.41,West,281,0.0,4.9,97,0.00,,---,0.00,VWS V14.01,2013-03-31 13:03:00,
2013-03-31 15:08:00,42.4,41.7,29.41,West,273,8.7,8.7,97,0.00,,---,0.00,VWS V14.01,2013-03-31 13:08:00,
2013-03-31 15:13:00,42.3,41.5,29.41,South,176,5.4,5.8,97,0.00,,---,0.00,VWS V14.01,2013-03-31 13:13:00,
2013-03-31 15:18:00,42.3,41.5,29.41,South,177,0.0,3.6,97,0.00,,---,0.00,VWS V14.01,2013-03-31 13:18:00,
2013-03-31 15:23:00,42.3,41.5,29.41,SSE,148,4.0,4.5,97,0.00,,---,0.00,VWS V14.01,2013-03-31 13:23:00,
2013-03-31 15:28:00,42.3,41.5,29.41,SSE,160,0.0,4.5,97,0.00,,---,0.00,VWS V14.01,2013-03-31 13:28:00,
2013-03-31 15:33:00,41.9,41.1,29.41,SE,124,0.0,5.4,97,0.00,,---,0.00,VWS V14.01,2013-03-31 13:33:00,
2013-03-31 15:38:00,41.5,40.8,29.44,SSE,147,6.9,6.9,97,0.00,,---,0.00,VWS V14.01,2013-03-31 13:38:00,
2013-03-31 15:43:00,41.4,40.6,29.44,West,276,6.3,8.3,97,0.00,,---,0.00,VWS V14.01,2013-03-31 13:43:00,
2013-03-31 15:48:00,41.5,40.8,29.44,WSW,238,0.0,4.0,97,0.00,,---,0.00,VWS V14.01,2013-03-31 13:48:00,
2013-03-31 15:53:00,41.2,40.4,29.44,WNW,297,9.6,11.0,97,0.00,,---,0.00,VWS V14.01,2013-03-31 13:53:00,
2013-03-31 15:58:00,41.2,40.4,29.44,SSE,152,4.9,9.6,97,0.00,,---,0.00,VWS V14.01,2013-03-31 13:58:00,
2013-03-31 16:03:00,41.2,40.4,29.44,SSE,148,3.6,5.8,97,0.00,,---,0.00,VWS V14.01,2013-03-31 14:03:00,
2013-03-31 16:08:00,41.0,40.2,29.44,West,280,3.1,6.9,97,0.00,,---,0.00,VWS V14.01,2013-03-31 14:08:00,
2013-03-31 16:13:00,41.0,40.2,29.44,SSE,164,5.4,6.9,97,0.00,,---,0.00,VWS V14.01,2013-03-31 14:13:00,
2013-03-31 16:19:00,40.8,40.0,29.44,SE,144,4.5,6.7,97,0.00,,---,0.00,VWS V14.01,2013-03-31 14:19:00,
2013-03-31 16:24:00,40.6,39.9,29.44,SSE,156,4.9,6.3,97,0.00,,---,0.00,VWS V14.01,2013-03-31 14:24:00,
2013-03-31 16:29:00,40.5,39.7,29.44,SSE,150,0.0,5.8,97,0.00,,---,0.00,VWS V14.01,2013-03-31 14:29:00,
2013-03-31 16:34:00,40.5,39.7,29.44,NW,321,4.5,9.6,97,0.00,,---,0.00,VWS V14.01,2013-03-31 14:34:00,
2013-03-31 16:39:00,40.5,39.7,29.47,SSE,151,5.4,5.4,97,0.00,,---,0.00,VWS V14.01,2013-03-31 14:39:00,
2013-03-31 16:44:00,40.3,39.5,29.47,SSE,149,2.7,6.3,97,0.00,,---,0.00,VWS V14.01,2013-03-31 14:44:00,
2013-03-31 16:49:00,40.3,39.5,29.47,South,170,3.6,7.4,97,0.00,,---,0.00,VWS V14.01,2013-03-31 14:49:00,
2013-03-31 16:54:00,40.5,39.7,29.47,NW,326,3.6,7.4,97,0.00,,---,0.00,VWS V14.01,2013-03-31 14:54:00,
2013-03-31 16:59:00,40.5,39.7,29.47,West,262,11.0,12.1,97,0.00,,---,0.00,VWS V14.01,2013-03-31 14:59:00,
2013-03-31 17:04:00,40.5,39.7,29.47,WNW,286,6.9,10.1,97,0.00,,---,0.00,VWS V14.01,2013-03-31 15:04:00,
2013-03-31 17:09:00,40.5,39.7,29.47,WNW,292,4.0,8.7,97,0.00,,---,0.00,VWS V14.01,2013-03-31 15:09:00,
2013-03-31 17:14:00,40.3,39.5,29.47,South,175,4.5,4.9,97,0.00,,---,0.00,VWS V14.01,2013-03-31 15:14:00,
2013-03-31 17:19:00,39.9,39.1,29.47,SSE,153,3.1,4.9,97,0.00,,---,0.00,VWS V14.01,2013-03-31 15:19:00,
2013-03-31 17:24:00,39.9,39.1,29.47,SSE,147,3.6,5.4,97,0.00,,---,0.00,VWS V14.01,2013-03-31 15:24:00,
2013-03-31 17:29:00,39.9,39.1,29.47,SSE,168,5.8,6.3,97,0.00,,---,0.00,VWS V14.01,2013-03-31 15:29:00,
2013-03-31 17:34:00,39.7,39.0,29.47,West,266,4.9,6.3,97,0.00,,---,0.00,VWS V14.01,2013-03-31 15:34:00,
2013-03-31 17:39:00,39.4,38.3,29.47,SSE,156,5.4,11.6,96,0.00,,---,0.00,VWS V14.01,2013-03-31 15:39:00,
2013-03-31 17:44:00,39.2,38.2,29.47,West,275,6.9,11.6,96,0.00,,---,0.00,VWS V14.01,2013-03-31 15:44:00,
2013-03-31 17:49:00,38.8,37.5,29.47,South,173,5.8,9.6,95,0.00,,---,0.00,VWS V14.01,2013-03-31 15:49:00,
2013-03-31 17:54:00,38.7,37.1,29.50,SSW,198,7.8,7.8,94,0.00,,---,0.00,VWS V14.01,2013-03-31 15:54:00,
2013-03-31 17:59:00,38.5,36.6,29.50,WNW,283,7.8,11.6,93,0.00,,---,0.00,VWS V14.01,2013-03-31 15:59:00,
2013-03-31 18:04:00,38.3,36.2,29.50,SSE,161,3.1,8.3,92,0.00,,---,0.00,VWS V14.01,2013-03-31 16:04:00,
2013-03-31 18:09:00,38.1,35.7,29.50,West,278,7.8,9.2,91,0.00,,---,0.00,VWS V14.01,2013-03-31 16:09:00,
2013-03-31 18:14:00,37.9,35.3,29.50,WNW,290,5.4,13.4,90,0.00,,---,0.00,VWS V14.01,2013-03-31 16:14:00,
2013-03-31 18:19:00,37.6,34.6,29.50,West,266,3.6,5.8,89,0.00,,---,0.00,VWS V14.01,2013-03-31 16:19:00,
2013-03-31 18:24:00,37.4,34.5,29.50,SSE,159,3.6,6.3,89,0.00,,---,0.00,VWS V14.01,2013-03-31 16:24:00,
2013-03-31 18:29:00,37.2,34.0,29.50,South,178,7.4,7.4,88,0.00,,---,0.00,VWS V14.01,2013-03-31 16:29:00,
2013-03-31 18:34:00,37.2,34.0,29.50,SSE,168,2.7,7.8,88,0.00,,---,0.00,VWS V14.01,2013-03-31 16:34:00,
2013-03-31 18:39:00,36.9,33.4,29.50,South,190,4.0,6.3,87,0.00,,---,0.00,VWS V14.01,2013-03-31 16:39:00,
2013-03-31 18:44:00,36.5,33.0,29.50,West,274,6.7,9.6,87,0.00,,---,0.00,VWS V14.01,2013-03-31 16:44:00,
2013-03-31 18:49:00,36.5,33.0,29.50,WNW,296,6.7,8.3,87,0.00,,---,0.00,VWS V14.01,2013-03-31 16:49:00,
2013-03-31 18:54:00,36.3,32.8,29.50,West,279,11.2,11.2,87,0.00,,---,0.00,VWS V14.01,2013-03-31 16:54:00,
2013-03-31 19:00:00,36.5,33.0,29.50,WSW,251,4.5,7.8,87,0.00,,---,0.00,VWS V14.01,2013-03-31 17:00:00,
2013-03-31 19:05:00,36.5,33.3,29.50,WNW,291,11.0,13.4,88,0.00,,---,0.00,VWS V14.01,2013-03-31 17:05:00,
2013-03-31 19:10:00,36.3,33.1,29.50,West,269,6.9,10.5,88,0.00,,---,0.00,VWS V14.01,2013-03-31 17:10:00,
2013-03-31 19:15:00,36.1,32.9,29.50,West,275,9.6,15.2,88,0.00,,---,0.00,VWS V14.01,2013-03-31 17:15:00,
2013-03-31 19:20:00,36.1,32.7,29.50,West,269,13.9,15.9,87,0.00,,---,0.00,VWS V14.01,2013-03-31 17:20:00,
2013-03-31 19:25:00,36.5,33.3,29.50,NNW,333,3.6,13.0,88,0.00,,---,0.00,VWS V14.01,2013-03-31 17:25:00,
2013-03-31 19:30:00,36.3,33.1,29.50,West,277,6.7,10.5,88,0.00,,---,0.00,VWS V14.01,2013-03-31 17:30:00,
2013-03-31 19:35:00,36.1,32.9,29.50,WSW,241,6.9,17.2,88,0.00,,---,0.00,VWS V14.01,2013-03-31 17:35:00,
2013-03-31 19:40:00,36.0,32.5,29.53,WSW,252,8.7,14.3,87,0.00,,---,0.00,VWS V14.01,2013-03-31 17:40:00,
2013-03-31 19:45:00,35.8,32.3,29.53,West,261,4.0,8.7,87,0.00,,---,0.00,VWS V14.01,2013-03-31 17:45:00,
2013-03-31 19:50:00,35.8,32.3,29.53,West,273,7.4,12.5,87,0.00,,---,0.00,VWS V14.01,2013-03-31 17:50:00,
2013-03-31 19:55:00,35.8,32.3,29.53,West,272,8.3,8.3,87,0.00,,---,0.00,VWS V14.01,2013-03-31 17:55:00,
2013-03-31 20:00:00,35.8,32.3,29.53,West,269,6.9,6.9,87,0.00,,---,0.00,VWS V14.01,2013-03-31 18:00:00,
2013-03-31 20:05:00,36.0,32.5,29.53,SSE,159,2.7,6.3,87,0.00,,---,0.00,VWS V14.01,2013-03-31 18:05:00,
2013-03-31 20:10:00,35.8,32.3,29.53,West,274,7.4,9.2,87,0.00,,---,0.00,VWS V14.01,2013-03-31 18:10:00,
2013-03-31 20:15:00,36.0,32.5,29.53,ESE,105,2.7,8.7,87,0.00,,---,0.00,VWS V14.01,2013-03-31 18:15:00,
2013-03-31 20:20:00,35.8,32.3,29.53,WNW,287,4.0,13.0,87,0.00,,---,0.00,VWS V14.01,2013-03-31 18:20:00,
2013-03-31 20:25:00,35.8,32.3,29.53,WNW,301,9.2,9.2,87,0.00,,---,0.00,VWS V14.01,2013-03-31 18:25:00,
2013-03-31 20:30:00,35.8,32.3,29.53,West,272,4.0,9.2,87,0.00,,---,0.00,VWS V14.01,2013-03-31 18:30:00,
2013-03-31 20:35:00,35.8,32.3,29.53,West,267,6.3,8.7,87,0.00,,---,0.00,VWS V14.01,2013-03-31 18:35:00,
2013-03-31 20:40:00,36.0,32.5,29.56,West,273,7.8,8.7,87,0.00,,---,0.00,VWS V14.01,2013-03-31 18:40:00,
2013-03-31 20:45:00,35.8,32.0,29.56,West,266,9.6,13.0,86,0.00,,---,0.00,VWS V14.01,2013-03-31 18:45:00,
2013-03-31 20:50:00,35.6,31.8,29.56,West,269,11.6,13.0,86,0.00,,---,0.00,VWS V14.01,2013-03-31 18:50:00,
2013-03-31 20:55:00,35.4,31.4,29.56,WNW,296,10.5,13.9,85,0.00,,---,0.00,VWS V14.01,2013-03-31 18:55:00,
2013-03-31 21:00:00,35.2,31.2,29.56,West,270,11.6,14.8,85,0.00,,---,0.00,VWS V14.01,2013-03-31 19:00:00,
2013-03-31 21:05:00,35.1,30.7,29.56,West,278,11.2,12.5,84,0.00,,---,0.00,VWS V14.01,2013-03-31 19:05:00,
2013-03-31 21:10:00,34.9,30.5,29.56,SW,226,10.1,14.3,84,0.00,,---,0.00,VWS V14.01,2013-03-31 19:10:00,
2013-03-31 21:15:00,34.9,30.2,29.56,West,273,9.2,13.0,83,0.00,,---,0.00,VWS V14.01,2013-03-31 19:15:00,
2013-03-31 21:20:00,34.7,30.1,29.56,South,170,6.9,6.9,83,0.00,,---,0.00,VWS V14.01,2013-03-31 19:20:00,
2013-03-31 21:25:00,34.5,29.9,29.56,WSW,240,2.7,11.6,83,0.00,,---,0.00,VWS V14.01,2013-03-31 19:25:00,
2013-03-31 21:30:00,34.5,29.6,29.56,ESE,106,5.8,5.8,82,0.00,,---,0.00,VWS V14.01,2013-03-31 19:30:00,
2013-03-31 21:35:00,34.3,29.1,29.56,West,264,9.6,13.9,81,0.00,,---,0.00,VWS V14.01,2013-03-31 19:35:00,
2013-03-31 21:40:00,34.3,29.1,29.56,West,277,15.2,15.2,81,0.00,,---,0.00,VWS V14.01,2013-03-31 19:40:00,
2013-03-31 21:45:00,34.3,28.8,29.56,NW,309,11.6,13.4,80,0.00,,---,0.00,VWS V14.01,2013-03-31 19:45:00,
2013-03-31 21:50:00,34.3,28.8,29.56,West,274,16.8,16.8,80,0.00,,---,0.00,VWS V14.01,2013-03-31 19:50:00,
2013-03-31 21:55:00,34.3,28.8,29.59,WNW,282,11.6,15.2,80,0.00,,---,0.00,VWS V14.01,2013-03-31 19:55:00,
2013-03-31 22:00:00,34.3,28.5,29.59,SE,146,3.1,10.5,79,0.00,,---,0.00,VWS V14.01,2013-03-31 20:00:00,
2013-03-31 22:05:00,34.3,28.5,29.59,WNW,288,11.0,11.2,79,0.00,,---,0.00,VWS V14.01,2013-03-31 20:05:00,
2013-03-31 22:10:00,34.3,28.5,29.56,West,271,12.1,12.5,79,0.00,,---,0.00,VWS V14.01,2013-03-31 20:10:00,
2013-03-31 22:15:00,34.3,28.2,29.56,SW,223,5.8,10.5,78,0.00,,---,0.00,VWS V14.01,2013-03-31 20:15:00,
2013-03-31 22:20:00,34.3,28.2,29.56,WNW,282,11.0,18.6,78,0.00,,---,0.00,VWS V14.01,2013-03-31 20:20:00,
2013-03-31 22:25:00,34.3,28.2,29.59,West,278,10.5,12.5,78,0.00,,---,0.00,VWS V14.01,2013-03-31 20:25:00,
2013-03-31 22:30:00,34.3,28.2,29.59,West,265,11.0,16.8,78,0.00,,---,0.00,VWS V14.01,2013-03-31 20:30:00,
2013-03-31 22:35:00,34.2,27.7,29.59,West,272,9.2,12.5,77,0.00,,---,0.00,VWS V14.01,2013-03-31 20:35:00,
2013-03-31 22:40:00,34.2,27.7,29.59,NW,314,10.5,11.6,77,0.00,,---,0.00,VWS V14.01,2013-03-31 20:40:00,
2013-03-31 22:45:00,34.0,27.5,29.59,SW,234,7.4,16.3,77,0.00,,---,0.00,VWS V14.01,2013-03-31 20:45:00,
2013-03-31 22:50:00,34.0,27.2,29.59,West,274,12.1,12.1,76,0.00,,---,0.00,VWS V14.01,2013-03-31 20:50:00,
2013-03-31 22:55:00,33.8,27.0,29.59,West,267,12.5,12.5,76,0.00,,---,0.00,VWS V14.01,2013-03-31 20:55:00,
2013-03-31 23:00:00,33.8,27.0,29.59,West,275,12.5,12.5,76,0.00,,---,0.00,VWS V14.01,2013-03-31 21:00:00,
2013-03-31 23:05:00,33.8,27.0,29.59,West,269,13.9,15.4,76,0.00,,---,0.00,VWS V14.01,2013-03-31 21:05:00,
2013-03-31 23:10:00,33.8,27.0,29.59,NW,308,3.6,11.0,76,0.00,,---,0.00,VWS V14.01,2013-03-31 21:10:00,
2013-03-31 23:15:00,33.6,26.9,29.59,West,276,14.3,14.3,76,0.00,,---,0.00,VWS V14.01,2013-03-31 21:15:00,
2013-03-31 23:20:00,33.6,26.6,29.59,WNW,294,3.1,10.1,75,0.00,,---,0.00,VWS V14.01,2013-03-31 21:20:00,
2013-03-31 23:25:00,33.6,26.6,29.59,West,267,14.8,16.3,75,0.00,,---,0.00,VWS V14.01,2013-03-31 21:25:00,
2013-03-31 23:30:00,33.8,26.7,29.59,NNW,327,5.8,10.5,75,0.00,,---,0.00,VWS V14.01,2013-03-31 21:30:00,
2013-03-31 23:35:00,33.8,26.7,29.59,West,270,9.6,11.6,75,0.00,,---,0.00,VWS V14.01,2013-03-31 21:35:00,
2013-03-31 23:40:00,33.8,26.7,29.62,West,281,11.0,11.0,75,0.00,,---,0.00,VWS V14.01,2013-03-31 21:40:00,
2013-03-31 23:45:00,33.8,26.7,29.62,WNW,299,6.3,8.7,75,0.00,,---,0.00,VWS V14.01,2013-03-31 21:45:00,
2013-03-31 23:50:00,33.8,26.7,29.62,South,173,5.4,6.9,75,0.00,,---,0.00,VWS V14.01,2013-03-31 21:50:00,
2013-03-31 23:55:00,33.6,26.6,29.62,West,277,7.8,7.8,75,0.00,,---,0.00,VWS V14.01,2013-03-31 21:55:00,